AirNav   ProFlight Series 2 Aviation Headset
 
 839 users online  

68AK Cowell's Heliport
Big Lake, Alaska, USA

GOING TO BIG LAKE?


FAA INFORMATION EFFECTIVE 16 JULY 2020

Location

FAA Identifier: 68AK
Lat/Long: 61-30-59.6900N 149-55-51.8900W
61-30.994833N 149-55.864833W
61.5165806,-149.9310806
(estimated)
Elevation: 142 ft. / 43 m (estimated)
From city: 4 miles SW of BIG LAKE, AK
Time zone: UTC -8 (UTC -9 during Standard Time)
Zip code: 99652

Heliport Operations

Heliport use: Private use. Permission required prior to landing
Activation date: 07/2004
Control tower: no
ARTCC: ANCHORAGE CENTER
FSS: KENAI FLIGHT SERVICE STATION [907-283-7211]
Attendance: UNATNDD
Segmented circle: no

Heliport Communications

CTAF: 122.8
WX AWOS-3P at IYS (12 nm E): 135.25 (907-373-3801)
WX AWOS-3P at BCV (14 nm SE): 135.55 (907-688-0826)
WX ASOS at FRN (17 nm SE): 134.25
WX ASOS at MRI (18 nm S): 124.25 (907-271-5277)
WX ASOS at LHD (20 nm S): PHONE 907-245-5432

Nearby radio navigation aids

VOR radial/distance  VOR name  Freq  Var
BGQr143/3.3BIG LAKE VORTAC112.5019E
TEDr344/20.9ANCHORAGE VOR/DME113.1518E

 
NDB name  Hdg/Dist  Freq  Var  ID
CAMPBELL LAKE353/21.033816ECMQ -.-. -- --.-

Heliport Services

Runway Information

Helipad H1

Dimensions: 20 x 20 ft. / 6 x 6 m
Surface: wood
Traffic pattern: leftleft

Heliport Ownership and Management from official FAA records

Ownership: Privately-owned
Owner: FULLER A. COWELL
PO BOX 521043
BIG LAKE, AK 99652-1043
Phone (907) 227-7333
Manager: FULLER A. COWELL
PO BOX 521043
BIG LAKE, AK 99652-1043
Phone (907) 227-7333

Heliport Operational Statistics

Aircraft based on the field: 1
Helicopters: 1
    

Instrument Procedures

There are no published instrument procedures at 68AK.

Some nearby airports with instrument procedures:

PAGQ - Big Lake Airport (4 nm E)
PAWS - Wasilla Airport (12 nm E)
PAUO - Willow Airport (15 nm N)
PAED - Elmendorf Air Force Base (16 nm S)
PAFR - Bryant Army Airfield Heliport (17 nm SE)
PAMR - Merrill Field Airport (18 nm S)
 
Loc | Ops | Rwys | IFR | FBO | Links
Com | Nav | Svcs | Stats | Notes

Crowley
 
Area around 68AK (Cowell's Heliport)
 
Road maps at: MapQuest Bing Google
 
Aerial photo
No photo
 
Sectional chart

 
Airport distance calculator
Flying to Cowell's Heliport? Find the distance to fly.

From to 68AK

Sunrise and sunset
Times for 12-Aug-2020
 Local
(UTC-8)
 Zulu
(UTC)
Morning civil twilight05:0613:06
Sunrise06:0314:03
Sunset22:0606:06
Evening civil twilight23:0307:03

Current date and time
Zulu (UTC)  13-Aug-2020 03:51:06
Local (UTC-8)  12-Aug-2020 19:51:06
 
METAR
PABV 
13nm SE 
130256Z AUTO 26004KT 10SM BKN080 BKN110 16/11 A2994 RMK AO2 SLP146 T01610106 55000
PAED 
16nm S 
130256Z 25010KT 10SM SCT030 SCT080 BKN200 17/10 A2994 RMK AO2A SLP134 T01650097 55000 CHINO RWY24 $
PAFR 
17nm SE 
130258Z AUTO 26004KT 10SM SCT075 BKN170 17/08 A2991 RMK AO2 SLP135 T01710076 55001 $
PAMR 
18nm S 
130253Z 28007KT 10SM FEW035 17/08 A2994 RMK AO2 SLP138 T01720083 55001
PALH 
20nm S 
130253Z 25005KT 10SM CLR 17/09 A2995 RMK AO2 SLP142 T01720089 53000
PANC 
21nm S 
130253Z 23006KT 10SM FEW035TCU SCT075 BKN250 17/07 A2994 RMK AO2 SLP138 CB DSNT N TCU E T01670072 53000
PAAQ 
25nm E 
130253Z AUTO 00000KT 10SM BKN070 BKN120 15/11 A2993 RMK AO2 SLP138 60000 T01500111 53002 TSNO
TAF
PAED 
16nm S 
130200Z 1302/1408 23008KT 9999 SCT025 BKN075 QNH2994INS TEMPO 1302/1304 VCTS BKN020CB BECMG 1306/1307 VRB06KT 9999 FEW015 SCT030 BKN045 QNH3000INS TEMPO 1322/1402 8000 -SHRA FEW030 BKN040 TX18/1302Z TN12/1312Z
NOTAMs
Click for the latest NOTAMs
NOTAMs are issued by the DoD/FAA and will open in a separate window not controlled by AirNav.

 

 
 

Would you like to see your business listed on this page?

 If your business provides an interesting product or service to pilots, flight crews, aircraft, or users of the Cowell's Heliport, you should consider listing it here.  To start the listing process, click on the button below
 
Add a business
 

Other Pages about Cowell's Heliport

Update a link
 
Copyright © AirNav, LLC. All rights reserved. Privacy Policy  Contact